Time;durP1;ratioP1;P1;durP2;ratioP2;P2;SDS_P1;SDS_P2;PMS_P1;PMS_P2;Temp;Humidity;BMP_temperature;BMP_pressure;BME280_temperature;BME280_humidity;BME280_pressure;Samples;Min_cycle;Max_cycle;Signal;HPM_P1;HPM_P2
2022/11/03 00:02:28;;;;;;;13.60;7.83;;;;;;;6.86;80.10;101555.36;1631765;85;21045;-76
2022/11/03 00:08:17;;;;;;;14.68;7.60;;;;;;;6.80;80.00;101561.28;1654279;85;21056;-76
2022/11/03 00:11:12;;;;;;;13.68;7.53;;;;;;;6.75;79.96;101564.23;1649615;85;21103;-76
2022/11/03 00:13:57;;;;;;;13.30;7.55;;;;;;;6.70;79.97;101555.59;1644359;85;21005;-76
2022/11/03 00:16:43;;;;;;;13.30;7.15;;;;;;;6.62;79.93;101555.48;1636512;86;21111;-76
2022/11/03 00:19:29;;;;;;;12.50;7.37;;;;;;;6.55;79.96;101552.78;1629301;86;21072;-76
2022/11/03 00:22:14;;;;;;;17.57;8.23;;;;;;;6.51;79.97;101555.73;1632738;87;21100;-76
2022/11/03 00:24:59;;;;;;;12.85;7.72;;;;;;;6.48;79.99;101554.81;1637730;87;21107;-76
2022/11/03 00:27:44;;;;;;;17.17;7.58;;;;;;;6.46;80.06;101556.49;1628211;86;21111;-76
2022/11/03 00:30:29;;;;;;;14.33;8.28;;;;;;;6.45;80.05;101559.91;1635383;85;21116;-76
2022/11/03 00:33:15;;;;;;;16.87;8.48;;;;;;;6.40;79.95;101557.68;1629500;87;21119;-76
2022/11/03 00:36:00;;;;;;;17.80;9.10;;;;;;;6.36;79.88;101561.03;1631066;87;21076;-76
2022/11/03 00:38:46;;;;;;;22.93;8.88;;;;;;;6.29;79.88;101561.36;1636909;86;21391;-76
2022/11/03 00:41:31;;;;;;;13.90;8.98;;;;;;;6.25;79.89;101562.14;1634544;86;20990;-76
2022/11/03 00:44:16;;;;;;;17.75;8.70;;;;;;;6.21;79.93;101565.11;1630507;86;21496;-76
2022/11/03 00:47:01;;;;;;;18.52;9.85;;;;;;;6.20;79.96;101559.95;1632174;86;20972;-76
2022/11/03 00:49:45;;;;;;;21.02;9.95;;;;;;;6.17;79.99;101557.33;1630391;86;21417;-76
2022/11/03 00:52:30;;;;;;;17.52;9.33;;;;;;;6.15;79.95;101561.57;1630986;86;20940;-76
2022/11/03 00:55:16;;;;;;;19.35;8.05;;;;;;;6.13;79.98;101560.68;1630730;86;20941;-76
2022/11/03 00:58:00;;;;;;;15.28;8.55;;;;;;;6.11;79.93;101563.64;1630497;86;20920;-76
2022/11/03 01:00:45;;;;;;;18.57;9.05;;;;;;;6.07;79.92;101560.57;1633833;86;21599;-76
2022/11/03 01:03:32;;;;;;;19.27;9.40;;;;;;;6.04;79.87;101564.37;1630216;86;20929;-76
2022/11/03 01:09:34;;;;;;;15.13;8.38;;;;;;;6.02;80.01;101567.33;1630385;86;20972;-76
2022/11/03 01:12:19;;;;;;;15.90;8.80;;;;;;;6.00;80.00;101557.03;1631078;86;21401;-76
2022/11/03 01:15:05;;;;;;;16.30;8.98;;;;;;;5.96;79.92;101561.66;1634370;84;21407;-76
2022/11/03 01:17:49;;;;;;;18.97;8.87;;;;;;;5.94;79.89;101564.20;1645438;85;21728;-76
2022/11/03 01:20:34;;;;;;;12.68;8.23;;;;;;;5.90;79.86;101561.13;1650554;85;21153;-76
2022/11/03 01:23:19;;;;;;;22.65;9.43;;;;;;;5.86;79.84;101561.88;1647869;85;21388;-76
2022/11/03 01:26:08;;;;;;;19.87;9.45;;;;;;;5.81;79.83;101559.64;1647475;84;21431;-77
2022/11/03 01:28:54;;;;;;;13.50;8.35;;;;;;;5.79;79.84;101557.89;1648480;85;21116;-76
2022/11/03 01:31:39;;;;;;;19.35;9.23;;;;;;;5.77;79.87;101560.42;1645792;84;21105;-76
2022/11/03 01:34:24;;;;;;;17.00;8.50;;;;;;;5.75;79.90;101559.95;1648861;85;21527;-76
2022/11/03 01:37:09;;;;;;;17.27;9.08;;;;;;;5.74;79.90;101565.92;1639074;85;21113;-76
2022/11/03 01:39:55;;;;;;;15.55;8.88;;;;;;;5.72;79.93;101560.75;1640164;85;21371;-76
2022/11/03 01:42:40;;;;;;;17.00;8.70;;;;;;;5.72;79.93;101556.08;1654982;85;21136;-76
2022/11/03 01:45:25;;;;;;;16.90;8.68;;;;;;;5.70;79.91;101552.61;1643783;85;21073;-76
2022/11/03 01:48:12;;;;;;;17.77;9.33;;;;;;;5.68;79.90;101549.16;1647134;85;21125;-76
2022/11/03 01:50:57;;;;;;;14.93;7.97;;;;;;;5.65;79.88;101552.11;1639414;85;21049;-76
2022/11/03 01:53:45;;;;;;;17.02;7.87;;;;;;;5.63;79.94;101551.63;1649565;85;21624;-76
2022/11/03 01:56:34;;;;;;;16.02;7.55;;;;;;;5.62;79.94;101549.48;1643909;85;20914;-76
2022/11/03 01:59:22;;;;;;;14.20;7.15;;;;;;;5.60;79.87;101547.72;1645188;85;21069;-76
2022/11/03 02:02:08;;;;;;;12.55;6.28;;;;;;;5.57;79.95;101551.52;1645424;85;21608;-76
2022/11/03 02:04:54;;;;;;;9.90;6.42;;;;;;;5.57;79.92;101552.80;1637921;85;21037;-76
2022/11/03 02:08:02;;;;;;;10.08;5.72;;;;;;;5.54;79.88;101545.91;1639891;84;21372;-76
2022/11/03 02:10:48;;;;;;;11.50;5.85;;;;;;;5.51;79.84;101537.28;1653608;85;21341;-76
2022/11/03 02:13:34;;;;;;;;;;;;;;;5.47;79.77;101544.05;1648812;85;21404;-76
2022/11/03 02:16:22;;;;;;;17.60;6.42;;;;;;;5.45;79.82;101540.59;1652687;85;20122;-76
2022/11/03 02:19:11;;;;;;;11.80;6.30;;;;;;;5.42;79.86;101541.81;1648906;85;20928;-76
2022/11/03 02:22:38;;;;;;;10.10;6.35;;;;;;;5.40;79.84;101537.06;1643857;85;20958;-76
2022/11/03 02:25:50;;;;;;;9.38;6.40;;;;;;;5.39;79.91;101539.61;1654600;85;20914;-77
2022/11/03 02:28:35;;;;;;;11.68;6.50;;;;;;;5.38;79.92;101535.31;1654590;85;21430;-76
2022/11/03 02:31:42;;;;;;;10.80;5.85;;;;;;;5.36;79.96;101531.44;1648875;85;21092;-76
2022/11/03 02:34:41;;;;;;;12.00;5.22;;;;;;;5.38;79.98;101534.03;1651930;85;21123;-76
2022/11/03 02:37:36;;;;;;;14.18;6.25;;;;;;;5.35;79.92;101524.57;1636803;85;21111;-76
2022/11/03 02:40:34;;;;;;;11.22;5.85;;;;;;;5.34;79.88;101527.97;1649741;85;21418;-76
2022/11/03 02:43:23;;;;;;;10.32;5.87;;;;;;;5.31;79.93;101526.62;1641963;85;21088;-76
2022/11/03 02:46:10;;;;;;;10.90;5.53;;;;;;;5.30;79.93;101530.02;1653202;85;21660;-76
2022/11/03 02:48:56;;;;;;;11.10;6.17;;;;;;;5.26;79.86;101522.69;1655172;85;21049;-76
2022/11/03 02:51:41;;;;;;;9.63;5.50;;;;;;;5.24;79.90;101529.48;1653367;84;21001;-76
2022/11/03 02:54:37;;;;;;;10.05;5.75;;;;;;;5.24;79.92;101527.34;1654167;85;21054;-76
2022/11/03 02:57:26;;;;;;;12.07;5.87;;;;;;;5.22;79.94;101522.59;1648557;85;21088;-76
2022/11/03 03:00:13;;;;;;;11.35;5.75;;;;;;;5.21;79.96;101528.14;1650052;85;21026;-76
2022/11/03 03:03:02;;;;;;;8.88;5.22;;;;;;;5.21;79.95;101525.58;1658233;85;20946;-76
2022/11/03 03:05:50;;;;;;;8.93;5.90;;;;;;;5.19;79.94;101525.13;1650260;84;20969;-76
2022/11/03 03:08:40;;;;;;;9.05;5.87;;;;;;;5.17;79.98;101530.22;1650221;85;20966;-76
2022/11/03 03:11:38;;;;;;;10.85;6.28;;;;;;;5.16;79.92;101522.08;1639921;85;21016;-76
2022/11/03 03:14:34;;;;;;;10.60;5.42;;;;;;;5.14;79.98;101522.89;1654397;85;21057;-76
2022/11/03 03:17:24;;;;;;;;;;;;;;;5.12;79.93;101520.29;1654579;85;21068;-76
2022/11/03 03:20:30;;;;;;;13.45;5.97;;;;;;;5.10;79.88;101530.06;1643386;84;20129;-76
2022/11/03 03:23:23;;;;;;;13.98;5.72;;;;;;;5.08;79.96;101526.19;1649699;85;21125;-76
2022/11/03 03:26:11;;;;;;;11.05;5.80;;;;;;;5.09;80.00;101525.77;1650137;85;21793;-76
2022/11/03 03:29:08;;;;;;;11.00;5.40;;;;;;;5.06;80.00;101522.72;1640130;85;21051;-76
2022/11/03 03:31:55;;;;;;;;;;;;;;;5.06;80.03;101520.16;1652326;85;21109;-76
2022/11/03 03:34:43;;;;;;;9.33;4.70;;;;;;;5.05;80.02;101518.43;1653614;83;20201;-76
2022/11/03 03:37:30;;;;;;;8.63;5.47;;;;;;;5.05;79.96;101518.84;1648468;85;21089;-76
2022/11/03 03:40:21;;;;;;;9.95;5.70;;;;;;;5.04;80.01;101510.29;1646179;85;21553;-76
2022/11/03 03:43:09;;;;;;;10.15;5.80;;;;;;;5.04;80.02;101510.29;1643227;85;21314;-76
2022/11/03 03:45:59;;;;;;;10.82;4.95;;;;;;;5.04;79.97;101515.83;1639367;85;21060;-76
2022/11/03 03:48:44;;;;;;;10.40;5.70;;;;;;;5.02;79.94;101512.38;1656808;84;21113;-76
2022/11/03 03:51:31;;;;;;;14.00;5.97;;;;;;;4.99;79.93;101509.33;1640475;85;21080;-76
2022/11/03 03:54:16;;;;;;;9.95;6.15;;;;;;;4.96;79.96;101506.70;1653286;85;21069;-76
2022/11/03 03:57:04;;;;;;;13.08;5.92;;;;;;;4.93;79.93;101501.09;1641646;85;21068;-76
2022/11/03 03:59:50;;;;;;;16.85;6.92;;;;;;;4.92;79.96;101503.63;1659727;85;21585;-76
2022/11/03 04:02:35;;;;;;;15.90;6.67;;;;;;;4.89;79.95;101504.42;1648080;84;20961;-76
2022/11/03 04:05:20;;;;;;;8.53;6.35;;;;;;;4.88;79.98;101503.11;1640507;85;20922;-76
2022/11/03 04:08:05;;;;;;;12.15;5.62;;;;;;;4.88;79.98;101504.39;1645957;86;21462;-76
2022/11/03 04:23:03;;;;;;;9.45;5.85;;;;;;;4.71;79.91;101522.37;1644389;84;20941;-76
2022/11/03 04:25:52;;;;;;;11.05;6.25;;;;;;;4.70;79.87;101518.08;1638822;86;20979;-76
2022/11/03 04:28:37;;;;;;;10.70;5.72;;;;;;;4.64;79.83;101511.16;1638272;86;20910;-76
2022/11/03 04:31:22;;;;;;;14.87;5.30;;;;;;;4.59;79.81;101512.33;1651146;83;20942;-76
2022/11/03 04:34:12;;;;;;;11.30;5.97;;;;;;;4.57;79.86;101509.28;1649351;85;20965;-76
2022/11/03 04:36:57;;;;;;;11.57;6.50;;;;;;;4.54;79.82;101507.52;1643152;85;20933;-76
2022/11/03 04:39:42;;;;;;;8.70;5.55;;;;;;;4.51;79.85;101509.14;1642387;85;20953;-76
2022/11/03 04:42:30;;;;;;;6.37;4.62;;;;;;;4.48;79.87;101502.25;1637907;85;20917;-76
2022/11/03 04:45:36;;;;;;;6.65;3.72;;;;;;;4.44;79.83;101498.30;1642939;84;21513;-76
2022/11/03 04:48:23;;;;;;;6.62;3.90;;;;;;;4.41;79.81;101497.81;1658676;84;21039;-76
2022/11/03 04:51:17;;;;;;;7.22;5.30;;;;;;;4.35;79.79;101500.23;1647430;85;20953;-76
2022/11/03 04:54:07;;;;;;;5.75;5.15;;;;;;;4.32;79.85;101497.19;1641421;86;21596;-76
2022/11/03 04:56:52;;;;;;;8.48;4.75;;;;;;;4.28;79.80;101497.08;1640549;86;21603;-76
2022/11/03 04:59:37;;;;;;;6.72;4.53;;;;;;;4.27;79.84;101503.03;1641366;85;21092;-79
2022/11/03 05:02:22;;;;;;;6.67;3.47;;;;;;;4.23;79.78;101498.66;1640775;86;21049;-77
2022/11/03 05:05:23;;;;;;;10.98;5.10;;;;;;;4.18;79.70;101493.84;1636870;84;21041;-82
2022/11/03 05:08:09;;;;;;;8.40;5.10;;;;;;;4.13;79.68;101489.06;1646328;85;21028;-85
2022/11/03 05:10:54;;;;;;;8.23;5.10;;;;;;;4.10;79.80;101486.43;1634171;86;21089;-84
2022/11/03 05:13:39;;;;;;;7.20;5.40;;;;;;;4.10;79.88;101482.59;1636891;86;21548;-85
2022/11/03 05:16:24;;;;;;;7.70;5.65;;;;;;;4.11;79.94;101485.59;1645108;85;21991;-85
2022/11/03 05:19:20;;;;;;;7.67;5.05;;;;;;;4.09;79.84;101483.42;1615975;86;21115;-84
2022/11/03 05:22:08;;;;;;;12.28;4.95;;;;;;;4.07;79.87;101477.39;1615026;86;21501;-85
2022/11/03 05:24:59;;;;;;;8.65;4.97;;;;;;;4.03;79.74;101487.11;1611728;87;21049;-84
2022/11/03 05:27:44;;;;;;;10.98;6.05;;;;;;;4.01;79.85;101485.78;1611849;86;21041;-85
2022/11/03 05:30:29;;;;;;;7.45;5.15;;;;;;;4.01;79.82;101485.78;1611264;87;21101;-85
2022/11/03 05:33:31;;;;;;;5.20;4.50;;;;;;;4.01;79.88;101484.92;1600238;87;21152;-83
2022/11/03 05:36:23;;;;;;;8.73;5.37;;;;;;;3.99;79.83;101485.75;1619756;86;21085;-84
2022/11/03 05:39:29;;;;;;;10.80;5.37;;;;;;;3.98;79.85;101484.44;1611132;86;21120;-84
2022/11/03 05:42:34;;;;;;;8.15;5.03;;;;;;;3.97;79.85;101484.84;1625843;86;25278;-84
2022/11/03 05:45:34;;;;;;;8.00;5.17;;;;;;;3.96;79.84;101483.53;1626643;87;21121;-84
2022/11/03 05:48:27;;;;;;;8.95;4.95;;;;;;;3.98;79.95;101492.11;1637273;85;21514;-84
2022/11/03 05:51:27;;;;;;;8.03;4.67;;;;;;;3.99;79.92;101484.47;1618743;87;21016;-84
2022/11/03 05:54:25;;;;;;;8.75;5.55;;;;;;;4.02;79.92;101489.21;1629052;85;21116;-84
2022/11/03 05:57:13;;;;;;;13.68;5.97;;;;;;;4.05;79.93;101496.97;1633739;85;21479;-84
2022/11/03 05:59:58;;;;;;;10.10;5.87;;;;;;;4.08;79.92;101492.78;1612288;87;21156;-84
2022/11/03 06:02:44;;;;;;;9.88;5.37;;;;;;;4.11;79.95;101492.00;1620105;86;21069;-84
2022/11/03 06:05:33;;;;;;;13.03;6.00;;;;;;;4.16;80.02;101499.38;1606131;88;21657;-84
2022/11/03 06:08:23;;;;;;;11.18;6.03;;;;;;;4.20;80.02;101497.30;1612624;86;21076;-84
2022/11/03 06:11:13;;;;;;;11.63;6.85;;;;;;;4.24;80.05;101495.27;1606391;88;21155;-84
2022/11/03 06:13:59;;;;;;;10.43;6.55;;;;;;;4.29;80.06;101494.55;1616835;88;21736;-84
2022/11/03 06:16:54;;;;;;;10.68;6.75;;;;;;;4.37;80.08;101501.55;1625535;86;21161;-84
2022/11/03 06:19:49;;;;;;;11.10;6.62;;;;;;;4.42;80.08;101489.72;1646304;86;21588;-84
2022/11/03 06:22:38;;;;;;;16.52;7.20;;;;;;;4.49;80.11;101496.72;1639517;85;21616;-84
2022/11/03 06:25:35;;;;;;;12.75;7.30;;;;;;;4.57;80.12;101501.59;1645436;85;21573;-84
2022/11/03 06:28:28;;;;;;;9.95;6.33;;;;;;;4.64;80.17;101492.80;1635969;85;21065;-84
2022/11/03 06:31:30;;;;;;;12.43;7.53;;;;;;;4.74;80.24;101498.97;1647332;85;21132;-84
2022/11/03 06:34:30;;;;;;;16.27;7.58;;;;;;;4.87;80.29;101497.53;1641464;85;21585;-84
2022/11/03 06:37:28;;;;;;;25.43;9.45;;;;;;;4.97;80.27;101500.33;1644088;85;21057;-84
2022/11/03 06:40:19;;;;;;;14.43;7.15;;;;;;;5.10;80.31;101495.04;1644234;86;21592;-84
2022/11/03 06:43:36;;;;;;;12.15;7.60;;;;;;;5.22;80.33;101498.23;1636798;86;21065;-84
2022/11/03 06:46:23;;;;;;;12.28;6.72;;;;;;;5.29;80.32;101497.11;1651741;86;20985;-84
2022/11/03 06:49:34;;;;;;;12.25;7.65;;;;;;;5.43;80.40;101501.64;1639823;84;21125;-84
2022/11/03 06:52:32;;;;;;;11.55;7.30;;;;;;;5.52;80.38;101497.55;1649952;85;21666;-84
2022/11/03 06:55:30;;;;;;;9.85;6.85;;;;;;;5.60;80.41;101497.28;1640443;86;21914;-84
2022/11/03 06:58:35;;;;;;;12.13;7.53;;;;;;;5.70;80.32;101497.45;1659137;85;21020;-85
2022/11/03 07:01:32;;;;;;;15.03;7.40;;;;;;;5.74;80.36;101493.64;1662786;84;21513;-83
2022/11/03 07:04:27;;;;;;;17.87;7.45;;;;;;;5.81;80.46;101490.35;1655527;84;21756;-83
2022/11/03 07:07:10;;;;;;;14.35;7.35;;;;;;;5.90;80.48;101490.55;1639111;86;21097;-83
2022/11/03 07:09:55;;;;;;;15.13;7.92;;;;;;;5.96;80.46;101486.80;1644172;86;21309;-85
2022/11/03 07:12:42;;;;;;;15.23;7.15;;;;;;;6.03;80.49;101483.05;1638427;86;21136;-80
2022/11/03 07:15:32;;;;;;;;;;;;;;;6.10;80.51;101483.59;1640510;85;21147;-80
2022/11/03 07:18:25;;;;;;;9.00;6.70;;;;;;;6.16;80.49;101479.42;1633672;85;20241;-80
2022/11/03 07:21:36;;;;;;;12.23;6.62;;;;;;;6.22;80.46;101481.23;1628002;87;21155;-80
2022/11/03 07:24:32;;;;;;;15.60;7.30;;;;;;;6.30;80.52;101474.47;1629267;87;21100;-80
2022/11/03 07:27:28;;;;;;;16.17;6.50;;;;;;;6.42;80.57;101477.23;1630107;85;21111;-80
2022/11/03 07:30:25;;;;;;;12.03;7.25;;;;;;;6.56;80.62;101472.29;1633475;85;21099;-80
2022/11/03 07:33:25;;;;;;;14.93;7.05;;;;;;;6.73;80.76;101461.83;1624331;86;21465;-80
2022/11/03 07:36:19;;;;;;;19.85;7.25;;;;;;;6.88;80.82;101455.98;1629235;87;21015;-82
2022/11/03 07:39:08;;;;;;;16.37;7.58;;;;;;;7.05;80.90;101451.91;1633298;87;20944;-82
2022/11/03 07:41:53;;;;;;;15.32;6.97;;;;;;;7.20;80.89;101446.09;1619045;87;20988;-81
2022/11/03 07:44:39;;;;;;;12.65;6.75;;;;;;;7.32;80.93;101439.76;1623324;86;20952;-80
2022/11/03 07:47:26;;;;;;;13.03;6.87;;;;;;;7.49;80.97;101442.50;1629230;86;20944;-80
2022/11/03 07:50:15;;;;;;;15.13;6.70;;;;;;;7.66;81.07;101428.09;1627210;86;21513;-81
2022/11/03 07:53:00;;;;;;;10.95;7.08;;;;;;;7.91;81.06;101435.14;1631509;87;20984;-78
2022/11/03 07:55:46;;;;;;;10.38;7.10;;;;;;;8.09;81.11;101430.98;1631766;87;20960;-78
2022/11/03 07:58:39;;;;;;;15.28;7.12;;;;;;;8.23;81.16;101429.38;1631667;87;21441;-78
2022/11/03 08:01:32;;;;;;;14.87;7.33;;;;;;;8.34;81.14;101425.58;1624936;85;20988;-78
2022/11/03 08:04:21;;;;;;;11.78;7.12;;;;;;;8.42;81.18;101422.63;1619609;87;20956;-78
2022/11/03 08:07:06;;;;;;;14.98;7.10;;;;;;;8.47;81.16;101422.22;1625999;87;20984;-81
2022/11/03 08:09:52;;;;;;;12.70;6.97;;;;;;;8.50;81.17;101416.66;1635818;85;20996;-80
2022/11/03 08:12:36;;;;;;;12.88;7.17;;;;;;;8.54;81.20;101413.67;1626813;86;39131;-80
2022/11/03 08:15:21;;;;;;;12.30;6.12;;;;;;;8.57;81.24;101408.11;1633051;85;21075;-80
2022/11/03 08:18:06;;;;;;;13.88;6.90;;;;;;;8.61;81.24;101416.72;1604769;88;21527;-80
2022/11/03 08:20:51;;;;;;;12.78;6.83;;;;;;;8.66;81.27;101411.16;1653711;84;21104;-80
2022/11/03 08:23:36;;;;;;;18.73;7.20;;;;;;;8.69;81.29;101407.73;1653242;86;21128;-80
2022/11/03 08:26:22;;;;;;;14.75;7.62;;;;;;;8.73;81.34;101406.46;1641691;86;21179;-79
2022/11/03 08:29:07;;;;;;;14.00;6.75;;;;;;;8.75;81.28;101402.17;1653095;84;21591;-79
2022/11/03 08:31:53;;;;;;;13.90;7.10;;;;;;;8.78;81.39;101399.61;1655703;85;21033;-79
2022/11/03 08:34:37;;;;;;;14.10;7.45;;;;;;;8.83;81.40;101396.62;1646488;85;20953;-79
2022/11/03 08:37:23;;;;;;;12.20;6.97;;;;;;;8.90;81.44;101397.47;1660028;84;21446;-79
2022/11/03 08:40:09;;;;;;;11.97;6.90;;;;;;;8.98;81.45;101396.20;1647971;86;20987;-79
2022/11/03 08:42:54;;;;;;;;;;;;;;;9.06;81.47;101398.38;1659740;84;20971;-79
2022/11/03 08:45:39;;;;;;;15.68;6.90;;;;;;;9.11;81.36;101393.67;1654138;84;20148;-79
2022/11/03 08:48:26;;;;;;;13.60;6.90;;;;;;;9.17;81.44;101394.11;1652049;84;21398;-79
2022/11/03 08:51:12;;;;;;;15.48;7.60;;;;;;;9.24;81.40;101391.98;1639249;86;20997;-80
2022/11/03 08:53:57;;;;;;;;;;;;;;;9.30;81.46;101386.83;1657902;85;20999;-80
2022/11/03 08:56:42;;;;;;;9.68;6.03;;;;;;;9.39;81.39;101380.36;1657512;84;20109;-80
2022/11/03 08:59:27;;;;;;;12.80;6.92;;;;;;;9.44;81.39;101383.80;1654494;86;21517;-79
2022/11/03 09:02:12;;;;;;;12.60;7.25;;;;;;;9.50;81.42;101384.24;1653164;85;20969;-78
2022/11/03 09:04:57;;;;;;;13.90;6.83;;;;;;;9.56;81.43;101385.54;1657319;86;20925;-79
2022/11/03 09:07:41;;;;;;;19.12;6.83;;;;;;;9.60;81.37;101383.39;1649388;84;20984;-81
2022/11/03 09:10:27;;;;;;;13.43;6.20;;;;;;;9.61;81.42;101367.90;1657791;84;21640;-81
2022/11/03 09:13:12;;;;;;;10.27;6.47;;;;;;;9.69;81.49;101372.20;1648779;86;21080;-81
2022/11/03 09:15:58;;;;;;;8.75;6.30;;;;;;;9.73;81.49;101370.05;1647208;84;21049;-81
2022/11/03 09:18:44;;;;;;;14.65;6.67;;;;;;;9.79;81.46;101371.34;1654772;84;21145;-81
2022/11/03 09:21:29;;;;;;;16.00;6.90;;;;;;;9.83;81.45;101370.05;1651148;84;21068;-81
2022/11/03 09:24:14;;;;;;;13.05;6.60;;;;;;;9.90;81.47;101370.44;1653916;84;21798;-81
2022/11/03 09:26:59;;;;;;;9.58;6.03;;;;;;;9.99;81.45;101368.70;1651981;84;21108;-81
2022/11/03 09:29:44;;;;;;;13.83;6.90;;;;;;;10.06;81.42;101363.95;1658775;86;21048;-81
2022/11/03 09:32:30;;;;;;;13.58;5.83;;;;;;;10.12;81.40;101363.95;1651460;86;21088;-81
2022/11/03 09:35:15;;;;;;;10.10;6.10;;;;;;;10.20;81.39;101360.95;1645443;84;21647;-81
2022/11/03 09:38:00;;;;;;;17.10;6.83;;;;;;;10.25;81.23;101352.32;1654444;84;20991;-81
2022/11/03 09:40:46;;;;;;;14.38;7.15;;;;;;;10.31;81.29;101341.10;1654516;83;21056;-81
2022/11/03 09:43:32;;;;;;;13.80;5.50;;;;;;;10.35;81.25;101341.95;1652663;84;21468;-81
2022/11/03 09:46:17;;;;;;;13.67;5.90;;;;;;;10.37;81.19;101346.25;1524976;84;5002015;-81
2022/11/03 09:49:04;;;;;;;9.75;5.17;;;;;;;10.39;81.18;101348.83;1640545;85;21552;-81
2022/11/03 09:51:49;;;;;;;11.40;5.47;;;;;;;10.42;81.21;101350.08;1650808;86;21108;-81
2022/11/03 09:54:34;;;;;;;11.90;5.87;;;;;;;10.44;81.20;101351.80;1658463;84;21106;-81
2022/11/03 09:57:19;;;;;;;10.00;5.25;;;;;;;10.46;81.19;101346.19;1653643;84;21099;-81
2022/11/03 10:00:07;;;;;;;10.85;5.50;;;;;;;10.49;81.20;101344.02;1657845;86;21104;-81
2022/11/03 10:02:54;;;;;;;14.90;5.65;;;;;;;10.53;81.18;101340.12;1651700;86;22431;-81
2022/11/03 10:05:41;;;;;;;15.28;5.22;;;;;;;10.59;81.18;101336.22;1653257;86;21528;-81
2022/11/03 10:08:31;;;;;;;12.47;5.40;;;;;;;10.66;81.17;101339.64;1651003;84;21575;-81
2022/11/03 10:11:16;;;;;;;11.60;5.58;;;;;;;10.71;81.07;101333.16;1650070;86;20977;-81
2022/11/03 10:14:01;;;;;;;12.58;5.22;;;;;;;10.77;81.06;101326.22;1658380;84;21386;-81
2022/11/03 10:17:01;;;;;;;10.72;5.47;;;;;;;10.83;80.88;101324.04;1656679;86;20969;-81
2022/11/03 10:19:50;;;;;;;12.18;4.92;;;;;;;10.87;80.93;101315.39;1657261;85;20937;-81
2022/11/03 10:22:35;;;;;;;10.53;4.87;;;;;;;10.90;80.96;101314.08;1653490;84;21537;-81
2022/11/03 10:25:35;;;;;;;12.40;5.05;;;;;;;10.94;81.02;101304.10;1655931;84;20930;-81
2022/11/03 10:28:30;;;;;;;18.80;5.87;;;;;;;10.99;80.97;101302.34;1652924;85;21004;-81
2022/11/03 10:31:20;;;;;;;13.05;4.55;;;;;;;11.04;80.94;101303.61;1651134;86;21438;-81
2022/11/03 10:34:28;;;;;;;8.70;4.28;;;;;;;11.07;80.90;101302.30;1652255;84;21463;-81
2022/11/03 10:37:27;;;;;;;8.50;4.58;;;;;;;11.10;80.89;101302.27;1651508;86;21461;-81
2022/11/03 10:40:34;;;;;;;10.70;4.12;;;;;;;11.15;80.87;101306.98;1655343;84;20921;-81
2022/11/03 10:43:19;;;;;;;8.58;4.00;;;;;;;11.18;80.82;101302.64;1652267;84;21605;-81
2022/11/03 10:46:21;;;;;;;10.48;4.17;;;;;;;11.20;80.73;101302.63;1646113;85;21155;-81
2022/11/03 10:49:18;;;;;;;10.10;4.42;;;;;;;11.23;80.77;101302.17;1651976;84;21533;-81
2022/11/03 10:52:22;;;;;;;;;;;;;;;11.30;80.78;101296.52;1654914;84;21120;-81
2022/11/03 10:55:08;;;;;;;10.00;3.98;;;;;;;11.34;80.43;101289.14;1651504;84;20772;-81
2022/11/03 10:57:54;;;;;;;10.35;3.67;;;;;;;11.35;80.64;101279.21;1648293;86;21139;-81
2022/11/03 11:00:41;;;;;;;8.25;3.40;;;;;;;11.38;80.60;101278.33;1651262;85;21103;-81
2022/11/03 11:03:27;;;;;;;11.45;3.98;;;;;;;11.39;80.63;101270.55;1652583;85;21050;-81
2022/11/03 11:06:23;;;;;;;13.58;4.53;;;;;;;11.43;80.57;101264.91;1650030;86;21687;-81
2022/11/03 11:09:12;;;;;;;6.25;2.90;;;;;;;11.49;80.62;101267.41;1656466;84;21001;-81
2022/11/03 11:12:08;;;;;;;6.37;2.27;;;;;;;11.56;80.57;101256.12;1650298;84;21838;-81
2022/11/03 11:14:57;;;;;;;10.70;1.85;;;;;;;11.63;80.53;101250.44;1490392;83;10000206;-81
2022/11/03 11:17:48;;;;;;;8.40;1.92;;;;;;;11.67;80.36;101243.06;1647854;84;21124;-81
2022/11/03 11:20:43;;;;;;;8.43;1.90;;;;;;;11.70;80.33;101245.19;1655356;83;21128;-81
2022/11/03 11:23:37;;;;;;;6.95;2.02;;;;;;;11.74;80.23;101240.39;1644667;84;21151;-81
2022/11/03 11:26:32;;;;;;;5.55;2.42;;;;;;;11.76;80.09;101232.60;1653307;84;26951;-81
2022/11/03 11:29:35;;;;;;;9.73;2.08;;;;;;;11.78;80.05;101231.74;1649487;84;21020;-81
2022/11/03 11:32:39;;;;;;;8.35;2.75;;;;;;;11.83;80.03;101227.80;1657440;84;21359;-81
2022/11/03 11:35:29;;;;;;;7.47;2.40;;;;;;;11.88;79.93;101230.77;1655281;86;21116;-81
2022/11/03 11:38:54;;;;;;;11.35;3.10;;;;;;;11.91;79.91;101221.66;1644056;86;21123;-81
2022/11/03 11:42:12;;;;;;;5.75;1.90;;;;;;;11.91;79.79;101217.77;1656974;84;22274;-81
2022/11/03 11:45:01;;;;;;;6.50;2.42;;;;;;;11.91;79.63;101205.25;1650052;85;21124;-81
2022/11/03 11:47:49;;;;;;;5.97;2.45;;;;;;;11.92;79.63;101203.94;1651852;86;21016;-81
2022/11/03 11:50:34;;;;;;;6.12;2.15;;;;;;;11.92;79.56;101198.75;1649770;86;21140;-81
2022/11/03 11:53:22;;;;;;;6.35;2.22;;;;;;;11.93;79.48;101196.59;1656220;86;21136;-81
2022/11/03 11:56:11;;;;;;;8.25;2.02;;;;;;;11.96;79.37;101191.77;1649087;84;21537;-81
2022/11/03 11:58:56;;;;;;;4.60;2.02;;;;;;;11.97;79.36;101181.83;1649880;86;21647;-81
2022/11/03 12:01:42;;;;;;;4.85;2.15;;;;;;;11.97;79.31;101170.16;1618026;86;21112;-81
2022/11/03 12:04:30;;;;;;;7.97;1.82;;;;;;;11.97;79.22;101167.56;1647586;86;21148;-81
2022/11/03 12:07:16;;;;;;;10.32;2.30;;;;;;;11.99;79.20;101164.95;1622801;86;36823;-81
2022/11/03 12:10:28;;;;;;;7.62;2.12;;;;;;;11.99;79.12;101155.45;1646781;84;21652;-81
2022/11/03 12:13:32;;;;;;;11.15;2.00;;;;;;;11.99;79.05;101152.85;1650399;84;21072;-81
2022/11/03 12:16:35;;;;;;;4.30;2.10;;;;;;;11.99;79.02;101149.41;1649425;86;21076;-81
2022/11/03 12:19:43;;;;;;;7.70;2.80;;;;;;;12.02;78.96;101139.00;1648360;84;21128;-81
2022/11/03 12:22:39;;;;;;;8.03;2.72;;;;;;;12.06;78.90;101132.45;1644031;85;21723;-81
2022/11/03 12:25:35;;;;;;;6.05;2.67;;;;;;;12.08;78.66;101132.44;1640652;86;22313;-78
2022/11/03 12:28:34;;;;;;;4.67;2.50;;;;;;;12.14;78.47;101131.91;1641647;84;21104;-79
2022/11/03 12:31:19;;;;;;;8.65;3.10;;;;;;;12.20;78.51;101112.38;1598433;87;21109;-79
2022/11/03 12:34:04;;;;;;;3.72;2.47;;;;;;;12.22;78.33;101117.55;1639555;86;20989;-80
2022/11/03 12:36:49;;;;;;;7.90;2.42;;;;;;;12.23;78.33;101116.66;1639300;86;21101;-80
2022/11/03 12:39:35;;;;;;;5.92;2.10;;;;;;;12.29;78.24;101106.20;1642219;86;21065;-80
2022/11/03 12:42:21;;;;;;;9.38;2.27;;;;;;;12.30;78.18;101096.25;1644304;84;21124;-80
2022/11/03 12:45:07;;;;;;;6.47;2.17;;;;;;;12.29;78.09;101094.53;1641191;85;21614;-80
2022/11/03 12:47:52;;;;;;;6.92;2.87;;;;;;;12.29;77.97;101097.13;1643868;85;21117;-80
2022/11/03 12:50:38;;;;;;;12.20;3.17;;;;;;;12.31;77.91;101093.22;1642705;86;21083;-80
2022/11/03 12:53:23;;;;;;;5.97;2.13;;;;;;;12.33;77.61;101086.27;1530656;84;9999848;-80
2022/11/03 12:56:09;;;;;;;7.10;2.20;;;;;;;12.33;77.70;101081.08;1644571;85;21749;-80
2022/11/03 12:58:54;;;;;;;7.62;2.92;;;;;;;12.32;77.78;101073.74;1640673;84;21687;-80
2022/11/03 13:01:39;;;;;;;7.05;2.83;;;;;;;12.28;77.50;101069.48;1642822;86;21096;-80
2022/11/03 13:04:24;;;;;;;5.90;2.52;;;;;;;12.30;77.59;101071.61;1643750;86;21068;-80
2022/11/03 13:07:09;;;;;;;6.30;2.60;;;;;;;12.27;77.59;101066.47;1639703;85;20985;-80
2022/11/03 13:09:54;;;;;;;8.95;2.75;;;;;;;12.25;77.58;101066.50;1641559;85;21739;-80
2022/11/03 13:12:40;;;;;;;6.58;2.60;;;;;;;12.23;77.37;101059.19;1645453;84;21506;-80
2022/11/03 13:15:25;;;;;;;8.05;3.00;;;;;;;12.25;77.45;101051.38;1643807;86;21093;-80
2022/11/03 13:18:10;;;;;;;6.15;2.75;;;;;;;12.23;77.18;101043.63;1643445;85;21069;-80
2022/11/03 13:20:55;;;;;;;7.72;2.45;;;;;;;12.25;77.14;101042.30;1641864;85;21580;-80
2022/11/03 13:23:40;;;;;;;9.13;2.77;;;;;;;12.25;77.00;101039.71;1644020;86;21080;-80
2022/11/03 13:26:25;;;;;;;8.55;2.50;;;;;;;12.23;77.08;101034.99;1640778;84;21415;-79
2022/11/03 13:29:10;;;;;;;10.70;2.75;;;;;;;12.24;77.08;101035.41;1644479;85;21566;-79
2022/11/03 13:31:56;;;;;;;16.17;2.77;;;;;;;12.22;76.80;101028.09;1643288;86;21101;-79